Latest Weather Observations for Cato Island

IDQ60801

Issued at 1:32 pm EST Saturday 20 December 2014 (issued every 30 minutes, with the page automatically refreshed every 10 minutes)

About weather observations | Map of weather stations | Latest weather observations for QLD | Other Formats
Station Details ID: 200601 Name: CATO ISLAND Lat: -23.25 Lon: 155.54 Height: 6.3 m
Data from the previous 72 hours. | See also: Recent months for locations in Queensland
Date/Time
EST
Temp
°C
App
Temp
°C
Dew
Point
Rel
Hum
%
Delta-T
°C
Wind Press
QNH
hPa
Press
MSL
hPa
Rain
since 9 am
mm
Dir
 
Spd
km/h
Gust
km/h
Spd
kts
Gust
kts
20/01:30pm 26.8 - - - - SE 22 28 12 15 1011.8 - -
20/01:00pm 26.7 - - - - SE 24 30 13 16 1012.0 1012.0 -
20/12:30pm 27.2 - - - - SE 20 24 11 13 1012.5 - -
20/12:00pm 27.0 - - - - SE 20 24 11 13 1012.6 1012.6 -
20/11:00am 27.2 - - - - ESE 19 20 10 11 1013.1 1013.1 -
20/10:00am 27.1 - - - - CALM 0 4 0 2 1013.4 1013.4 -
20/09:00am 27.7 - - - - SE 7 11 4 6 1013.2 1013.2 -
20/08:30am 28.0 - - - - S 6 9 3 5 1013.0 - -
20/08:00am 27.6 - - - - CALM 0 4 0 2 1012.9 1012.9 -
20/07:30am 27.1 - - - - S 4 9 2 5 1012.9 - -
20/07:00am 27.0 - - - - SSW 7 9 4 5 1012.7 1012.7 -
20/06:30am 26.1 - - - - SSE 7 9 4 5 1012.4 - -
20/06:00am 25.1 - - - - CALM 0 0 0 0 1012.1 1012.1 -
20/05:30am 24.6 - - - - CALM 0 0 0 0 1011.7 - -
20/05:00am 24.4 - - - - CALM 0 2 0 1 1011.3 1011.4 -
20/04:30am 24.2 - - - - N 7 9 4 5 1010.9 - -
20/04:00am 24.3 - - - - CALM 0 6 0 3 1010.8 1010.8 -
20/03:30am 24.3 - - - - NW 9 11 5 6 1010.7 - -
20/03:00am 24.3 - - - - W 13 15 7 8 1010.7 1010.7 -
20/02:30am 24.5 - - - - W 15 17 8 9 1010.8 - -
20/02:00am 24.4 - - - - W 13 15 7 8 1010.8 1010.8 -
20/01:30am 24.5 - - - - W 9 11 5 6 1011.0 - -
20/01:00am 24.7 - - - - WNW 9 11 5 6 1011.0 1011.0 -
20/12:30am 24.9 - - - - WNW 11 15 6 8 1011.4 - -
20/12:00am 25.2 - - - - W 13 17 7 9 1011.8 1011.8 -
 
Date/Time
EST
Temp
°C
App
Temp
°C
Dew
Point
Rel
Hum
%
Delta-T
°C
Wind Press
QNH
hPa
Press
MSL
hPa
Rain
since 9 am
mm
Dir
 
Spd
km/h
Gust
km/h
Spd
kts
Gust
kts
19/11:30pm 25.3 - - - - NW 15 19 8 10 1012.2 - -
19/11:00pm 25.9 - - - - CALM 0 0 0 0 1012.5 1012.4 -
19/10:30pm 25.9 - - - - CALM 0 0 0 0 1012.7 - -
19/10:00pm 25.9 - - - - CALM 0 0 0 0 1012.6 1012.7 -
19/09:30pm 25.9 - - - - S 6 7 3 4 1012.6 - -
19/09:00pm 25.8 - - - - S 6 7 3 4 1012.6 1012.6 -
19/08:30pm 25.8 - - - - SSW 9 11 5 6 1012.5 - -
19/08:00pm 25.9 - - - - WSW 13 15 7 8 1012.4 1012.4 -
19/07:30pm 26.1 - - - - W 15 17 8 9 1012.3 - -
19/07:00pm 25.9 - - - - W 11 15 6 8 1011.8 1011.8 -
19/06:30pm 26.1 - - - - WNW 11 13 6 7 1011.4 - -
19/06:00pm 26.2 - - - - W 11 15 6 8 1011.3 1011.3 -
19/05:30pm 26.4 - - - - W 9 13 5 7 1010.8 - -
19/05:00pm 26.5 - - - - W 9 13 5 7 1010.7 1010.7 -
19/04:00pm 26.6 - - - - W 17 - 9 - - 1010.6 -
19/03:00pm 27.4 - - - - WNW 15 20 8 11 1010.6 1010.6 -
19/02:30pm 28.3 - - - - NW 17 19 9 10 1010.7 - -
19/02:00pm 28.2 - - - - NW 15 19 8 10 1010.9 1010.9 -
19/01:30pm 27.9 - - - - NNW 13 15 7 8 1010.9 - -
19/01:00pm 27.6 - - - - NNW 15 20 8 11 1011.1 1011.1 -
19/12:30pm 27.6 - - - - N 17 20 9 11 1011.1 - -
19/12:00pm 27.5 - - - - NNW 15 19 8 10 1011.5 1011.5 -
19/11:30am 28.2 - - - - N 17 20 9 11 1011.6 - -
19/11:00am 27.9 - - - - NNW 17 19 9 10 1011.9 1011.9 -
19/10:30am 27.4 - - - - N 19 22 10 12 1012.1 - -
19/10:00am 27.5 - - - - N 19 - 10 - - 1012.3 -
19/09:00am 27.6 - - - - N 17 19 9 10 1012.6 1012.6 -
19/08:30am 27.4 - - - - CALM 0 6 0 3 1012.8 - -
19/08:00am 27.1 - - - - N 15 17 8 9 1013.0 1013.0 -
19/07:30am 27.2 - - - - NNW 15 19 8 10 1013.1 - -
19/07:00am 26.3 - - - - N 17 20 9 11 1013.1 1013.1 -
19/06:30am 26.3 - - - - N 13 17 7 9 1013.0 - -
19/06:00am 26.0 - - - - N 11 15 6 8 1012.7 1012.7 -
19/05:30am 25.3 - - - - N 13 17 7 9 1012.6 - -
19/05:00am 24.8 - - - - N 13 17 7 9 1012.3 1012.3 -
19/04:30am 24.9 - - - - N 11 15 6 8 1012.4 - -
19/04:00am 25.0 - - - - N 15 20 8 11 1012.2 1012.2 -
19/03:30am 25.1 - - - - N 17 20 9 11 1012.0 - -
19/03:00am 24.9 - - - - N 13 17 7 9 1012.0 1012.0 -
19/02:30am 25.1 - - - - NNE 19 22 10 12 1011.7 - -
19/02:00am 25.1 - - - - NNE 19 20 10 11 1011.6 1011.6 -
19/01:30am 25.2 - - - - NNE 19 22 10 12 1011.8 - -
19/01:00am 25.1 - - - - NNE 19 22 10 12 1012.0 1012.0 -
19/12:30am 25.2 - - - - NNE 19 22 10 12 1012.3 - -
19/12:00am 25.2 - - - - NNE 20 24 11 13 1012.4 1012.4 -
 
Date/Time
EST
Temp
°C
App
Temp
°C
Dew
Point
Rel
Hum
%
Delta-T
°C
Wind Press
QNH
hPa
Press
MSL
hPa
Rain
since 9 am
mm
Dir
 
Spd
km/h
Gust
km/h
Spd
kts
Gust
kts
18/11:30pm 25.2 - - - - NNE 19 24 10 13 1012.8 - -
18/11:00pm 25.1 - - - - NNE 15 19 8 10 1013.1 1013.1 -
18/10:30pm 25.2 - - - - NNE 17 20 9 11 1013.4 - -
18/10:00pm 25.3 - - - - N 17 20 9 11 1013.4 1013.4 -
18/09:30pm 25.3 - - - - NNE 17 20 9 11 1013.1 - -
18/09:00pm 25.3 - - - - NNE 17 20 9 11 1012.9 1012.9 -
18/08:30pm 25.4 - - - - N 17 20 9 11 1012.8 - -
18/08:00pm 25.4 - - - - N 15 19 8 10 1012.6 1012.6 -
18/07:30pm 25.4 - - - - N 15 19 8 10 1012.4 - -
18/07:00pm 25.5 - - - - N 17 22 9 12 1012.2 1012.2 -
18/06:30pm 25.7 - - - - N 15 19 8 10 1012.1 - -
18/06:00pm 25.9 - - - - N 17 20 9 11 1011.7 1011.7 -
18/05:00pm 26.7 - - - - N 20 24 11 13 1010.8 1010.8 -
18/04:30pm 26.7 - - - - NNW 20 24 11 13 1010.5 - -
18/04:00pm 27.1 - - - - NNW 20 24 11 13 1010.4 1010.4 -
18/03:30pm 27.3 - - - - N 20 26 11 14 1010.6 - -
18/03:00pm 28.2 - - - - NNW 20 24 11 13 1010.6 1010.6 -
18/02:30pm 27.5 - - - - NNW 20 24 11 13 1011.4 - -
18/02:00pm 27.6 - - - - NNW 19 24 10 13 1011.7 1011.6 -
18/01:30pm 28.1 - - - - NNW 19 22 10 12 1012.1 - -
18/01:00pm 28.4 - - - - N 17 20 9 11 1012.5 1012.5 -
18/12:30pm 28.3 - - - - N 17 20 9 11 1012.8 - -
18/12:00pm 28.5 - - - - NNW 17 20 9 11 1013.0 1013.0 -
18/11:30am 28.2 - - - - N 19 22 10 12 1013.4 - -
18/11:00am 28.7 - - - - N 20 26 11 14 1013.1 1013.1 -
18/10:00am 28.0 - - - - N 19 - 10 - - 1013.1 -
18/09:30am 27.9 - - - - N 15 20 8 11 1013.3 - -
18/09:00am 28.0 - - - - NNE 15 19 8 10 1013.3 1013.3 -
18/08:30am 27.7 - - - - N 17 20 9 11 1013.3 - -
18/08:00am 27.0 - - - - N 19 22 10 12 1013.5 1013.5 -
18/07:30am 26.9 - - - - N 19 22 10 12 1013.5 - -
18/07:00am 26.4 - - - - N 15 19 8 10 1013.5 1013.5 -
18/06:30am 26.1 - - - - N 17 20 9 11 1013.2 - -
18/06:00am 25.8 - - - - N 13 17 7 9 1013.1 1013.1 -
18/05:30am 25.2 - - - - N 15 20 8 11 1012.6 - -
18/05:00am 25.0 - - - - NNW 17 20 9 11 1012.1 1012.2 -
18/04:30am 24.8 - - - - N 15 19 8 10 1011.7 - -
18/04:00am 24.8 - - - - N 15 19 8 10 1011.6 1011.6 -
18/03:30am 24.9 - - - - N 17 20 9 11 1011.3 - -
18/03:00am 24.8 - - - - N 20 24 11 13 1010.8 1010.9 -
18/02:30am 24.9 - - - - N 19 20 10 11 1011.0 - -
18/02:00am 25.0 - - - - N 22 28 12 15 1010.5 1010.5 -
18/01:30am 25.0 - - - - N 20 24 11 13 1010.5 - -
18/01:00am 25.1 - - - - N 20 24 11 13 1010.5 1010.5 -
18/12:30am 25.2 - - - - N 22 28 12 15 1010.7 - -
18/12:00am 25.2 - - - - N 22 26 12 14 1011.1 1011.0 -
 
Date/Time
EST
Temp
°C
App
Temp
°C
Dew
Point
Rel
Hum
%
Delta-T
°C
Wind Press
QNH
hPa
Press
MSL
hPa
Rain
since 9 am
mm
Dir
 
Spd
km/h
Gust
km/h
Spd
kts
Gust
kts
17/11:30pm 25.2 - - - - N 20 24 11 13 1011.2 - -
17/11:00pm 25.2 - - - - N 20 24 11 13 1011.2 1011.2 -
17/10:30pm 25.2 - - - - N 19 20 10 11 1011.3 - -
17/10:00pm 25.3 - - - - N 20 24 11 13 1011.5 1011.6 -
17/09:30pm 25.4 - - - - N 20 24 11 13 1011.3 - -
17/09:00pm 25.4 - - - - N 20 24 11 13 1011.0 1011.0 -
17/08:30pm 25.4 - - - - N 20 24 11 13 1010.5 - -
17/08:00pm 25.5 - - - - N 20 24 11 13 1010.1 1010.2 -
17/07:30pm 25.6 - - - - N 20 24 11 13 1010.1 - -
17/07:00pm 25.7 - - - - NNW 20 - 11 - - 1009.8 -
17/06:30pm 25.7 - - - - N 20 22 11 12 1009.6 - -
17/06:00pm 26.0 - - - - N 19 20 10 11 1009.1 1009.2 -
17/05:30pm 26.2 - - - - NNW 20 24 11 13 1008.7 - -
17/05:00pm 26.4 - - - - NNW 20 24 11 13 1008.5 1008.6 -
17/04:30pm 26.8 - - - - NNW 19 22 10 12 1008.4 - -
17/04:00pm 26.8 - - - - NNW 20 24 11 13 1008.4 1008.5 -
17/03:30pm 27.2 - - - - NW 20 24 11 13 1008.5 - -
17/03:00pm 26.9 - - - - NNW 22 26 12 14 1008.4 1008.6 -
17/02:30pm 27.3 - - - - NW 19 22 10 12 1008.6 - -
17/02:00pm 27.2 - - - - NNW 22 - 12 - - 1008.9 -

Other Formats:

Comma delimited format used in spreadsheet applications
http://www.bom.gov.au/fwo/IDQ60801/IDQ60801.94394.axf

JavaScript Object Notation format (JSON) in row-major order
http://www.bom.gov.au/fwo/IDQ60801/IDQ60801.94394.json